Time;durP1;ratioP1;P1;durP2;ratioP2;P2;SDS_P1;SDS_P2;PMS_P1;PMS_P2;Temp;Humidity;BMP_temperature;BMP_pressure;BME280_temperature;BME280_humidity;BME280_pressure;Samples;Min_cycle;Max_cycle;Signal;HPM_P1;HPM_P2
2021/11/09 00:00:30;;;;;;;30.50;9.93;;;6.60;99.90;;;;;;5144078;27;37060;-79
2021/11/09 00:02:58;;;;;;;37.05;8.65;;;6.50;99.90;;;;;;5123219;27;49687;-79
2021/11/09 00:05:27;;;;;;;40.50;11.37;;;6.40;99.90;;;;;;5131632;27;39020;-79
2021/11/09 00:07:57;;;;;;;41.23;12.63;;;6.50;99.90;;;;;;5146032;27;37769;-79
2021/11/09 00:10:24;;;;;;;45.10;12.73;;;6.40;99.90;;;;;;5139803;27;38487;-77
2021/11/09 00:12:54;;;;;;;35.60;11.17;;;6.40;99.90;;;;;;5120013;27;39508;-76
2021/11/09 00:15:23;;;;;;;29.97;9.67;;;6.30;99.90;;;;;;5116784;27;38433;-78
2021/11/09 00:17:52;;;;;;;47.37;12.70;;;6.30;99.90;;;;;;5117703;27;37047;-78
2021/11/09 00:20:21;;;;;;;40.97;12.30;;;6.30;99.90;;;;;;5122736;27;37817;-78
2021/11/09 00:22:48;;;;;;;35.70;10.57;;;6.20;99.90;;;;;;5136810;27;38380;-78
2021/11/09 00:25:16;;;;;;;29.10;11.33;;;6.40;99.90;;;;;;5136573;27;38074;-77
2021/11/09 00:27:42;;;;;;;36.80;13.37;;;6.40;99.90;;;;;;5130843;27;39735;-78
2021/11/09 00:30:11;;;;;;;37.67;11.37;;;6.40;99.90;;;;;;5139553;27;37083;-77
2021/11/09 00:32:38;;;;;;;41.73;15.23;;;6.50;99.90;;;;;;5140847;27;39144;-77
2021/11/09 00:35:07;;;;;;;46.37;13.70;;;6.40;99.90;;;;;;5144505;27;38568;-77
2021/11/09 00:37:33;;;;;;;56.63;15.10;;;6.40;99.90;;;;;;5135912;27;45032;-78
2021/11/09 00:40:00;;;;;;;45.37;14.63;;;6.30;99.90;;;;;;5143885;27;37969;-78
2021/11/09 00:42:26;;;;;;;39.53;11.73;;;6.20;99.90;;;;;;5145354;27;39056;-78
2021/11/09 00:44:52;;;;;;;31.93;12.33;;;6.40;99.90;;;;;;5143190;27;38249;-78
2021/11/09 00:47:18;;;;;;;49.50;14.47;;;6.50;99.90;;;;;;5128613;27;40122;-77
2021/11/09 00:49:44;;;;;;;45.67;13.13;;;6.60;99.90;;;;;;5140893;27;38616;-78
2021/11/09 00:52:11;;;;;;;44.60;14.83;;;6.70;99.90;;;;;;5134472;27;40839;-78
2021/11/09 00:54:38;;;;;;;37.07;13.47;;;6.70;99.90;;;;;;5134077;27;38702;-78
2021/11/09 00:57:05;;;;;;;55.37;16.33;;;6.70;99.90;;;;;;5138667;27;38037;-77
2021/11/09 00:59:31;;;;;;;41.67;14.17;;;6.60;99.90;;;;;;5139035;27;37950;-78
2021/11/09 01:01:57;;;;;;;42.87;13.97;;;6.70;99.90;;;;;;5120483;27;37461;-78
2021/11/09 01:04:24;;;;;;;44.00;14.57;;;6.70;99.90;;;;;;5140980;27;38394;-80
2021/11/09 01:06:51;;;;;;;45.70;15.03;;;6.80;99.90;;;;;;5137936;27;38605;-78
2021/11/09 01:09:17;;;;;;;57.87;15.47;;;6.80;99.90;;;;;;5129487;27;38639;-79
2021/11/09 01:11:43;;;;;;;50.70;17.47;;;6.80;99.90;;;;;;5122331;27;37424;-80
2021/11/09 01:14:10;;;;;;;39.80;16.13;;;6.80;99.90;;;;;;5128555;27;38179;-77
2021/11/09 01:16:36;;;;;;;41.93;15.17;;;6.80;99.90;;;;;;5129968;27;37557;-79
2021/11/09 01:19:05;;;;;;;57.37;18.90;;;6.80;99.90;;;;;;5141247;27;38370;-76
2021/11/09 01:21:33;;;;;;;41.10;15.03;;;6.80;99.90;;;;;;5133914;27;38573;-79
2021/11/09 01:23:59;;;;;;;41.20;13.60;;;6.70;99.90;;;;;;5128700;27;38477;-77
2021/11/09 01:26:26;;;;;;;50.17;18.80;;;6.70;99.90;;;;;;5121636;27;38455;-76
2021/11/09 01:28:55;;;;;;;56.83;17.90;;;6.70;99.90;;;;;;5130569;27;36846;-79
2021/11/09 01:31:21;;;;;;;43.40;15.00;;;6.60;99.90;;;;;;5142034;27;38474;-77
2021/11/09 01:33:49;;;;;;;54.40;16.70;;;6.70;99.90;;;;;;5137338;27;40156;-77
2021/11/09 01:36:17;;;;;;;50.90;15.73;;;6.70;99.90;;;;;;5144155;27;38677;-77
2021/11/09 01:38:43;;;;;;;46.83;14.80;;;6.70;99.90;;;;;;5142747;27;36410;-78
2021/11/09 01:41:09;;;;;;;50.63;17.37;;;6.80;99.90;;;;;;5146571;27;38392;-79
2021/11/09 01:43:37;;;;;;;44.37;17.97;;;6.80;99.90;;;;;;5144956;27;38272;-80
2021/11/09 01:46:05;;;;;;;54.63;19.57;;;6.90;99.90;;;;;;5132117;27;37351;-79
2021/11/09 01:48:31;;;;;;;47.60;15.23;;;6.90;99.90;;;;;;5129707;27;36252;-79
2021/11/09 01:51:02;;;;;;;45.20;16.30;;;6.90;99.90;;;;;;5119816;27;39684;-79
2021/11/09 01:53:29;;;;;;;50.70;17.80;;;7.00;99.90;;;;;;5138715;27;48181;-80
2021/11/09 01:55:59;;;;;;;44.67;17.47;;;6.90;99.90;;;;;;5122977;27;39636;-79
2021/11/09 01:58:25;;;;;;;48.93;17.20;;;6.90;99.90;;;;;;5121956;27;36440;-79
2021/11/09 02:00:55;;;;;;;45.90;14.50;;;7.00;99.90;;;;;;5115776;27;39263;-78
2021/11/09 02:03:23;;;;;;;61.43;19.40;;;7.00;99.90;;;;;;5140021;27;37891;-79
2021/11/09 02:05:50;;;;;;;46.33;17.40;;;7.00;99.90;;;;;;5146016;27;37998;-80
2021/11/09 02:08:17;;;;;;;50.67;17.93;;;7.00;99.90;;;;;;5131490;27;38012;-79
2021/11/09 02:10:46;;;;;;;53.47;17.47;;;7.00;99.90;;;;;;5135522;27;39444;-80
2021/11/09 02:13:14;;;;;;;44.63;16.20;;;7.00;99.90;;;;;;5134116;27;39987;-79
2021/11/09 02:15:41;;;;;;;46.87;17.03;;;7.00;99.90;;;;;;5134809;27;38709;-80
2021/11/09 02:18:11;;;;;;;44.50;17.27;;;7.00;99.90;;;;;;5135932;27;37966;-80
2021/11/09 02:20:38;;;;;;;48.70;19.37;;;7.00;99.90;;;;;;5133093;27;39862;-79
2021/11/09 02:23:05;;;;;;;49.43;18.17;;;6.90;99.90;;;;;;5138640;27;38855;-79
2021/11/09 02:25:33;;;;;;;44.50;16.80;;;6.90;99.90;;;;;;5133835;27;38807;-80
2021/11/09 02:28:02;;;;;;;46.30;18.50;;;7.00;99.90;;;;;;5123442;27;39343;-79
2021/11/09 02:30:30;;;;;;;44.17;19.47;;;7.00;99.90;;;;;;5126800;27;46975;-79
2021/11/09 02:32:57;;;;;;;50.93;18.33;;;7.00;99.90;;;;;;5146494;27;38217;-80
2021/11/09 02:35:24;;;;;;;45.97;18.87;;;7.00;99.90;;;;;;5138001;27;38589;-79
2021/11/09 02:37:51;;;;;;;58.60;19.57;;;7.00;99.90;;;;;;5142065;27;39745;-80
2021/11/09 02:40:20;;;;;;;50.77;19.90;;;7.10;99.90;;;;;;5137020;27;38801;-79
2021/11/09 02:42:50;;;;;;;61.30;23.00;;;7.10;99.90;;;;;;5136010;27;38990;-79
2021/11/09 02:45:23;;;;;;;48.23;18.50;;;7.10;99.90;;;;;;5142036;27;37629;-80
2021/11/09 02:48:00;;;;;;;55.53;19.97;;;7.10;99.90;;;;;;5125038;27;37377;-79
2021/11/09 02:50:32;;;;;;;48.83;18.03;;;7.00;99.90;;;;;;5120278;27;46862;-79
2021/11/09 02:53:08;;;;;;;50.57;18.37;;;7.00;99.90;;;;;;5121267;27;38415;-79
2021/11/09 02:55:38;;;;;;;46.40;17.23;;;7.00;99.90;;;;;;5120701;27;47301;-79
2021/11/09 03:03:37;;;;;;;41.30;16.30;;;7.00;99.90;;;;;;5127640;27;49445;-79
2021/11/09 03:09:05;;;;;;;52.90;18.83;;;7.00;99.90;;;;;;5144677;27;38776;-78
2021/11/09 03:11:29;;;;;;;40.57;16.23;;;7.00;99.90;;;;;;5147774;27;48472;-79
2021/11/09 03:13:56;;;;;;;43.23;18.20;;;6.90;99.90;;;;;;5132061;27;38448;-78
2021/11/09 03:16:23;;;;;;;49.97;17.03;;;6.90;99.90;;;;;;5130274;27;37976;-79
2021/11/09 03:19:00;;;;;;;48.97;17.37;;;6.80;99.90;;;;;;5147743;27;37559;-79
2021/11/09 03:40:49;;;;;;;66.97;19.43;;;6.90;99.90;;;;;;5159041;27;49050;-79
2021/11/09 03:46:00;;;;;;;61.30;19.93;;;6.90;99.90;;;;;;5138551;27;37425;-79
2021/11/09 03:48:27;;;;;;;56.20;17.83;;;6.90;99.90;;;;;;5132638;27;47357;-79
2021/11/09 03:50:59;;;;;;;51.53;17.87;;;7.00;99.90;;;;;;5130211;27;36315;-80
2021/11/09 03:53:28;;;;;;;47.58;18.25;;;7.00;99.90;;;;;;5157294;27;39917;-79
2021/11/09 03:56:15;;;;;;;48.80;18.20;;;7.20;99.90;;;;;;5141568;27;37758;-79
2021/11/09 03:58:44;;;;;;;57.90;18.60;;;7.30;99.90;;;;;;5144257;27;49643;-80
2021/11/09 04:01:15;;;;;;;42.53;16.00;;;7.40;99.90;;;;;;5143853;27;36580;-80
2021/11/09 04:08:50;;;;;;;50.13;17.03;;;7.50;99.90;;;;;;5147605;27;38351;-80
2021/11/09 04:11:26;;;;;;;60.33;18.10;;;7.50;99.90;;;;;;5143932;27;37161;-80
2021/11/09 04:27:05;;;;;;;52.33;19.27;;;7.60;99.90;;;;;;5143843;27;39276;-78
2021/11/09 04:51:38;;;;;;;57.40;20.43;;;7.60;99.90;;;;;;5142913;27;38504;-79
2021/11/09 05:10:00;;;;;;;105.07;32.20;;;7.70;99.90;;;;;;5130751;27;49378;-78
2021/11/09 05:12:26;;;;;;;81.63;28.87;;;7.60;99.90;;;;;;5146185;27;38263;-78
2021/11/09 05:14:52;;;;;;;82.53;28.17;;;7.70;99.90;;;;;;5139022;27;38421;-77
2021/11/09 05:17:18;;;;;;;78.50;27.30;;;7.70;99.90;;;;;;5137817;27;38248;-78
2021/11/09 05:19:44;;;;;;;81.37;26.47;;;7.70;99.90;;;;;;5138507;27;37315;-80
2021/11/09 05:22:10;;;;;;;77.93;27.93;;;7.80;99.90;;;;;;5139050;27;38496;-78
2021/11/09 05:24:42;;;;;;;81.47;27.17;;;7.80;99.90;;;;;;5133787;27;36657;-78
2021/11/09 05:27:15;;;;;;;68.83;25.23;;;7.90;99.90;;;;;;5139436;27;39697;-78
2021/11/09 05:29:43;;;;;;;89.57;27.37;;;7.90;99.90;;;;;;5134583;27;37831;-77
2021/11/09 05:32:10;;;;;;;85.13;27.60;;;8.00;99.90;;;;;;5134488;27;37016;-78
2021/11/09 05:34:36;;;;;;;91.97;30.50;;;8.00;99.90;;;;;;5134503;27;36364;-78
2021/11/09 05:37:04;;;;;;;78.40;24.90;;;8.10;99.90;;;;;;5140035;27;37601;-78
2021/11/09 05:39:45;;;;;;;85.47;26.63;;;8.10;99.90;;;;;;5130619;27;37076;-78
2021/11/09 05:42:12;;;;;;;79.57;22.60;;;8.10;99.90;;;;;;5132763;27;40902;-78
2021/11/09 05:44:39;;;;;;;68.40;22.70;;;8.10;99.90;;;;;;5135043;27;36219;-78
2021/11/09 05:47:05;;;;;;;66.00;22.07;;;8.20;99.90;;;;;;5139638;27;38740;-77
2021/11/09 05:49:33;;;;;;;69.10;20.67;;;8.20;99.90;;;;;;5136127;27;39255;-78
2021/11/09 05:52:01;;;;;;;68.93;21.67;;;8.20;99.90;;;;;;5134352;27;40688;-77
2021/11/09 05:54:28;;;;;;;73.47;23.50;;;8.20;99.90;;;;;;5134316;27;46717;-78
2021/11/09 05:56:55;;;;;;;70.73;23.23;;;8.20;99.90;;;;;;5135064;27;38438;-78
2021/11/09 05:59:21;;;;;;;75.20;23.57;;;8.20;99.90;;;;;;5139243;27;38297;-78
2021/11/09 06:01:47;;;;;;;77.00;24.80;;;8.20;99.90;;;;;;5137522;27;37843;-78
2021/11/09 06:04:14;;;;;;;78.40;26.80;;;8.20;99.90;;;;;;5138194;27;38929;-79
2021/11/09 06:06:41;;;;;;;85.63;27.20;;;8.20;99.90;;;;;;5135644;27;39886;-78
2021/11/09 06:09:07;;;;;;;88.50;27.17;;;8.20;99.90;;;;;;5132989;27;38768;-78
2021/11/09 06:11:33;;;;;;;71.73;26.27;;;8.30;99.90;;;;;;5132342;27;37384;-79
2021/11/09 06:14:00;;;;;;;64.83;23.87;;;8.20;99.90;;;;;;5137918;27;36817;-78
2021/11/09 06:16:26;;;;;;;68.90;23.67;;;8.30;99.90;;;;;;5133576;27;39941;-78
2021/11/09 06:18:53;;;;;;;67.87;22.70;;;8.30;99.90;;;;;;5128796;27;38529;-79
2021/11/09 06:21:19;;;;;;;67.27;22.30;;;8.30;99.90;;;;;;5123459;27;37500;-79
2021/11/09 06:23:46;;;;;;;70.30;22.23;;;8.30;99.90;;;;;;5139747;27;37654;-78
2021/11/09 06:26:12;;;;;;;62.90;20.43;;;8.30;99.90;;;;;;5137546;27;38778;-79
2021/11/09 06:28:40;;;;;;;66.23;22.23;;;8.30;99.90;;;;;;5117837;27;37523;-77
2021/11/09 06:31:06;;;;;;;66.80;22.97;;;8.30;99.90;;;;;;5136854;27;38221;-78
2021/11/09 06:33:32;;;;;;;57.70;21.33;;;8.30;99.90;;;;;;5144297;27;37511;-78
2021/11/09 06:35:59;;;;;;;62.03;20.33;;;8.30;99.90;;;;;;5142270;27;39320;-79
2021/11/09 06:38:25;;;;;;;56.90;22.07;;;8.30;99.90;;;;;;5144139;27;40049;-78
2021/11/09 06:40:51;;;;;;;66.13;22.77;;;8.30;99.90;;;;;;5137107;27;38572;-79
2021/11/09 06:43:18;;;;;;;55.70;20.20;;;8.30;99.90;;;;;;5135171;27;37470;-79
2021/11/09 06:45:45;;;;;;;56.03;20.00;;;8.30;99.90;;;;;;5139235;27;38647;-79
2021/11/09 06:48:11;;;;;;;61.33;22.27;;;8.40;99.90;;;;;;5135016;27;38241;-78
2021/11/09 06:50:38;;;;;;;49.53;20.03;;;8.40;99.90;;;;;;5134543;27;40726;-78
2021/11/09 06:53:04;;;;;;;52.47;21.37;;;8.40;99.90;;;;;;5119485;27;36903;-77
2021/11/09 06:55:34;;;;;;;62.80;21.13;;;8.40;99.90;;;;;;5118814;27;37385;-78
2021/11/09 06:58:01;;;;;;;62.20;21.47;;;8.40;99.90;;;;;;5125238;27;39078;-78
2021/11/09 07:00:27;;;;;;;61.37;22.07;;;8.40;99.90;;;;;;5141700;27;48831;-77
2021/11/09 07:02:54;;;;;;;66.80;21.30;;;8.50;99.90;;;;;;5132172;27;38588;-77
2021/11/09 07:05:22;;;;;;;63.73;21.50;;;8.50;99.90;;;;;;5131799;27;39169;-77
2021/11/09 07:07:48;;;;;;;69.77;24.93;;;8.50;99.90;;;;;;5136390;27;40285;-76
2021/11/09 07:10:16;;;;;;;57.40;22.40;;;8.50;99.90;;;;;;5129572;27;38590;-77
2021/11/09 07:12:43;;;;;;;63.97;23.47;;;8.50;99.90;;;;;;5138881;27;36337;-77
2021/11/09 07:15:11;;;;;;;66.30;22.17;;;8.50;99.90;;;;;;5128657;27;38435;-76
2021/11/09 07:17:39;;;;;;;72.33;23.10;;;8.50;99.90;;;;;;5132026;27;38361;-77
2021/11/09 07:20:09;;;;;;;64.50;22.10;;;8.60;99.90;;;;;;5133312;27;38094;-78
2021/11/09 07:22:35;;;;;;;60.43;24.43;;;8.60;99.90;;;;;;5137664;27;36663;-76
2021/11/09 07:25:02;;;;;;;74.47;24.27;;;8.60;99.90;;;;;;5136860;27;39872;-77
2021/11/09 07:27:28;;;;;;;61.10;23.40;;;8.70;99.90;;;;;;5136760;27;49079;-76
2021/11/09 07:29:55;;;;;;;72.37;25.63;;;8.70;99.90;;;;;;5132840;27;38936;-76
2021/11/09 07:32:22;;;;;;;83.30;28.37;;;8.70;99.90;;;;;;5140491;27;38348;-76
2021/11/09 07:34:48;;;;;;;77.60;27.27;;;8.80;99.90;;;;;;5134796;27;39088;-77
2021/11/09 07:37:14;;;;;;;79.10;26.13;;;8.80;99.90;;;;;;5141551;27;38063;-77
2021/11/09 07:39:40;;;;;;;82.00;27.73;;;8.80;99.90;;;;;;5139583;27;38778;-76
2021/11/09 07:42:07;;;;;;;85.23;27.60;;;8.90;99.90;;;;;;5143094;27;39242;-75
2021/11/09 07:44:33;;;;;;;74.10;27.03;;;8.90;99.90;;;;;;5138212;27;39465;-76
2021/11/09 07:46:59;;;;;;;80.53;26.57;;;9.00;99.90;;;;;;5130534;27;39254;-77
2021/11/09 07:49:25;;;;;;;80.17;26.40;;;9.00;99.90;;;;;;5139481;27;36742;-77
2021/11/09 07:51:51;;;;;;;72.93;25.57;;;9.00;99.90;;;;;;5139169;27;37361;-76
2021/11/09 07:54:21;;;;;;;67.83;25.63;;;9.10;99.90;;;;;;5133326;27;39859;-76
2021/11/09 07:56:47;;;;;;;69.07;25.30;;;9.10;99.90;;;;;;5138064;27;39208;-76
2021/11/09 07:59:25;;;;;;;55.43;22.93;;;9.10;99.90;;;;;;5138600;27;37002;-77
2021/11/09 08:02:04;;;;;;;63.10;24.30;;;9.10;99.90;;;;;;5141047;27;36344;-77
2021/11/09 08:04:54;;;;;;;70.47;25.27;;;9.20;99.90;;;;;;5141832;27;48941;-77
2021/11/09 08:07:30;;;;;;;61.60;22.97;;;9.20;99.90;;;;;;5144937;27;38498;-78
2021/11/09 08:09:56;;;;;;;65.17;25.17;;;9.20;99.90;;;;;;5139066;27;37068;-75
2021/11/09 08:12:22;;;;;;;81.10;25.67;;;9.20;99.90;;;;;;5141959;27;37221;-76
2021/11/09 08:14:49;;;;;;;68.60;23.90;;;9.30;99.90;;;;;;5137791;27;37434;-76
2021/11/09 08:17:16;;;;;;;79.37;26.83;;;9.30;99.90;;;;;;5138689;27;39100;-77
2021/11/09 08:19:43;;;;;;;84.63;29.17;;;9.40;99.90;;;;;;5134099;27;39585;-76
2021/11/09 08:22:10;;;;;;;85.80;29.07;;;9.40;99.90;;;;;;5114791;27;36659;-75
2021/11/09 08:24:36;;;;;;;87.37;29.90;;;9.40;99.90;;;;;;5114014;27;39169;-76
2021/11/09 08:27:06;;;;;;;83.57;30.53;;;9.40;99.90;;;;;;5149156;27;39560;-75
2021/11/09 08:29:33;;;;;;;96.23;33.27;;;9.50;99.90;;;;;;5144725;27;39492;-76
2021/11/09 08:32:00;;;;;;;85.70;28.43;;;9.60;99.90;;;;;;5132214;27;37251;-76
2021/11/09 08:34:30;;;;;;;70.67;26.87;;;9.60;99.90;;;;;;5139796;27;39977;-78
2021/11/09 08:36:56;;;;;;;54.63;21.77;;;9.60;99.90;;;;;;5143395;27;39252;-76
2021/11/09 08:39:27;;;;;;;64.27;21.80;;;9.70;99.90;;;;;;5142426;27;39112;-77
2021/11/09 08:44:41;;;;;;;66.00;21.20;;;9.80;99.90;;;;;;5138953;27;49348;-76
2021/11/09 08:47:07;;;;;;;58.90;21.00;;;9.80;99.90;;;;;;5138609;27;39273;-78
2021/11/09 08:49:33;;;;;;;54.23;20.07;;;9.90;99.90;;;;;;5143055;27;35888;-78
2021/11/09 08:52:03;;;;;;;59.17;21.83;;;9.90;99.90;;;;;;5128945;27;37941;-78
2021/11/09 08:54:36;;;;;;;58.90;20.47;;;9.90;99.90;;;;;;5138646;27;47207;-76
2021/11/09 08:57:11;;;;;;;;;;;9.90;99.90;;;;;;5132347;27;38419;-78
2021/11/09 09:05:08;;;;;;;63.53;21.37;;;10.10;99.90;;;;;;5133049;27;39430;-79
2021/11/09 09:07:36;;;;;;;53.17;21.00;;;10.20;99.90;;;;;;5142219;27;38658;-77
2021/11/09 09:10:07;;;;;;;55.37;20.70;;;10.20;99.90;;;;;;5143045;27;39203;-76
2021/11/09 09:12:36;;;;;;;53.88;20.30;;;10.20;99.90;;;;;;5141912;27;20039;-76
2021/11/09 09:15:07;;;;;;;59.87;20.67;;;10.30;99.90;;;;;;5137328;27;38289;-80
2021/11/09 09:17:35;;;;;;;60.80;20.40;;;10.40;99.90;;;;;;5136643;27;46825;-80
2021/11/09 09:20:09;;;;;;;52.07;19.70;;;10.40;99.90;;;;;;5143472;27;40205;-77
2021/11/09 09:22:41;;;;;;;67.80;20.20;;;10.40;99.90;;;;;;5115233;27;47576;-77
2021/11/09 09:25:24;;;;;;;63.50;20.00;;;10.40;99.90;;;;;;5132236;27;38376;-78
2021/11/09 09:28:24;;;;;;;59.73;21.27;;;10.40;99.90;;;;;;5124934;27;38519;-77
2021/11/09 09:33:40;;;;;;;58.30;19.75;;;10.50;99.90;;;;;;5142199;27;38123;-77
2021/11/09 09:55:15;;;;;;;47.40;17.03;;;10.70;99.90;;;;;;5159043;27;38586;-79
2021/11/09 09:57:41;;;;;;;56.53;18.90;;;10.80;99.90;;;;;;5133739;27;47289;-80
2021/11/09 10:00:09;;;;;;;48.30;19.33;;;10.80;99.90;;;;;;5132764;27;37664;-79
2021/11/09 10:02:50;;;;;;;65.77;23.00;;;10.80;99.90;;;;;;5134046;27;37087;-80
2021/11/09 10:05:16;;;;;;;67.27;24.53;;;10.90;99.90;;;;;;5134591;27;36464;-79
2021/11/09 10:07:50;;;;;;;60.85;22.67;;;10.90;99.90;;;;;;5142003;27;37829;-80
2021/11/09 10:10:25;;;;;;;61.70;22.27;;;10.90;99.90;;;;;;5132603;27;37813;-79
2021/11/09 10:13:18;;;;;;;63.03;20.90;;;11.00;99.90;;;;;;5154639;27;37740;-80
2021/11/09 10:15:52;;;;;;;63.05;19.98;;;11.00;99.90;;;;;;5124368;27;47378;-80
2021/11/09 10:18:20;;;;;;;56.37;19.73;;;11.00;99.90;;;;;;5127819;27;39254;-77
2021/11/09 10:20:55;;;;;;;49.20;19.83;;;11.10;99.90;;;;;;5131525;27;38286;-79
2021/11/09 10:23:24;;;;;;;49.58;18.48;;;11.20;99.90;;;;;;5141233;27;38549;-79
2021/11/09 10:25:52;;;;;;;53.72;18.73;;;11.20;99.90;;;;;;5137628;27;38178;-79
2021/11/09 10:28:21;;;;;;;55.93;18.77;;;11.20;99.90;;;;;;5134019;27;39020;-79
2021/11/09 10:30:58;;;;;;;46.13;16.63;;;11.30;99.90;;;;;;5116804;27;37255;-79
2021/11/09 10:33:30;;;;;;;50.13;16.15;;;11.30;99.90;;;;;;5126077;27;37140;-79
2021/11/09 10:35:57;;;;;;;43.83;16.38;;;11.30;99.90;;;;;;5145659;27;37438;-80
2021/11/09 10:38:30;;;;;;;41.10;16.33;;;11.40;99.90;;;;;;5148242;27;38654;-82
2021/11/09 10:41:01;;;;;;;49.83;16.13;;;11.50;99.90;;;;;;5123380;27;37817;-81
2021/11/09 10:43:29;;;;;;;43.70;15.65;;;11.50;99.90;;;;;;5114297;27;46875;-79
2021/11/09 10:45:55;;;;;;;42.00;16.08;;;11.40;99.90;;;;;;5136286;27;38162;-78
2021/11/09 10:48:24;;;;;;;45.47;16.73;;;11.30;99.90;;;;;;5130686;27;37587;-78
2021/11/09 10:50:53;;;;;;;51.28;17.58;;;11.20;99.90;;;;;;5129805;27;39045;-78
2021/11/09 10:53:46;;;;;;;51.83;19.13;;;11.20;99.90;;;;;;5134426;27;37383;-78
2021/11/09 10:59:10;;;;;;;49.13;18.30;;;11.40;99.90;;;;;;5132177;27;39148;-79
2021/11/09 11:04:42;;;;;;;55.30;17.67;;;11.20;99.90;;;;;;5130507;27;39269;-79
2021/11/09 11:07:11;;;;;;;58.60;18.00;;;11.20;99.90;;;;;;5124981;27;36694;-77
2021/11/09 11:09:42;;;;;;;50.47;18.93;;;11.10;99.90;;;;;;5136190;27;38141;-80
2021/11/09 11:12:14;;;;;;;54.30;20.13;;;11.10;99.90;;;;;;5133757;27;38172;-77
2021/11/09 11:14:42;;;;;;;53.40;19.23;;;11.00;99.90;;;;;;5135852;27;39531;-77
2021/11/09 11:17:13;;;;;;;51.93;17.00;;;11.00;99.90;;;;;;5155306;27;36541;-78
2021/11/09 11:19:39;;;;;;;45.50;16.43;;;11.10;99.90;;;;;;5138002;27;37797;-78
2021/11/09 11:22:11;;;;;;;50.15;17.20;;;11.10;99.90;;;;;;5128786;27;39041;-79
2021/11/09 11:24:39;;;;;;;46.85;15.50;;;11.10;99.90;;;;;;5135436;27;37920;-79
2021/11/09 11:27:06;;;;;;;41.33;15.93;;;11.10;99.90;;;;;;5135333;27;39117;-77
2021/11/09 11:29:36;;;;;;;47.40;16.17;;;11.00;99.90;;;;;;5135356;27;38594;-79
2021/11/09 11:32:08;;;;;;;42.07;14.83;;;11.00;99.90;;;;;;5139572;27;38588;-79
2021/11/09 11:34:34;;;;;;;40.70;15.67;;;11.10;99.90;;;;;;5138296;27;37159;-78
2021/11/09 11:37:00;;;;;;;34.67;14.80;;;11.20;99.90;;;;;;5135241;27;37924;-79
2021/11/09 11:39:32;;;;;;;40.28;15.20;;;11.30;99.90;;;;;;5115873;27;40805;-79
2021/11/09 11:42:01;;;;;;;37.15;14.65;;;11.40;99.90;;;;;;5118600;27;39267;-79
2021/11/09 11:44:33;;;;;;;45.53;16.92;;;11.40;99.90;;;;;;5124874;27;38613;-79
2021/11/09 11:47:02;;;;;;;45.33;14.80;;;11.40;99.90;;;;;;5130170;27;36900;-79
2021/11/09 11:49:41;;;;;;;39.85;14.30;;;11.40;99.90;;;;;;5151152;27;47211;-79
2021/11/09 11:52:14;;;;;;;41.03;15.30;;;11.30;99.90;;;;;;5131419;27;37561;-77
2021/11/09 11:55:15;;;;;;;53.50;18.37;;;11.20;99.90;;;;;;5133989;27;38219;-79
2021/11/09 11:57:47;;;;;;;50.03;17.63;;;11.10;99.90;;;;;;5137879;27;49230;-79
2021/11/09 12:00:44;;;;;;;54.03;16.90;;;11.10;99.90;;;;;;5120792;27;39371;-77
2021/11/09 12:03:19;;;;;;;54.85;17.92;;;11.20;99.90;;;;;;5115762;27;40168;-79
2021/11/09 12:05:47;;;;;;;69.73;19.20;;;11.20;99.90;;;;;;5135616;27;38142;-80
2021/11/09 12:08:15;;;;;;;56.20;19.42;;;11.20;99.90;;;;;;5139330;27;37216;-79
2021/11/09 12:10:45;;;;;;;59.40;19.65;;;11.10;99.90;;;;;;5118016;27;38279;-78
2021/11/09 12:13:13;;;;;;;60.70;20.10;;;11.20;99.90;;;;;;5116759;27;38843;-79
2021/11/09 12:15:50;;;;;;;59.23;20.37;;;11.20;99.90;;;;;;5132511;27;38085;-79
2021/11/09 12:18:28;;;;;;;66.38;21.23;;;11.30;99.90;;;;;;5127212;27;37745;-79
2021/11/09 12:21:08;;;;;;;66.18;21.98;;;11.30;99.90;;;;;;5137892;27;38608;-80
2021/11/09 12:23:36;;;;;;;68.25;23.20;;;11.30;99.90;;;;;;5128996;27;47327;-78
2021/11/09 12:26:04;;;;;;;66.95;22.67;;;11.30;99.90;;;;;;5149920;27;37066;-79
2021/11/09 12:28:33;;;;;;;69.50;22.73;;;11.30;99.90;;;;;;5131257;27;38867;-79
2021/11/09 12:31:00;;;;;;;63.88;23.73;;;11.40;99.90;;;;;;5136649;27;38550;-79
2021/11/09 12:33:31;;;;;;;70.65;23.88;;;11.40;99.90;;;;;;5132843;27;39232;-79
2021/11/09 12:36:03;;;;;;;71.57;22.43;;;11.40;99.90;;;;;;5134092;27;38659;-79
2021/11/09 12:38:34;;;;;;;65.95;20.75;;;11.40;99.90;;;;;;5117747;27;47245;-79
2021/11/09 12:41:08;;;;;;;63.58;21.48;;;11.40;99.90;;;;;;5134672;27;39846;-80
2021/11/09 12:43:51;;;;;;;58.10;17.83;;;11.50;99.90;;;;;;5117548;27;47147;-79
2021/11/09 12:46:28;;;;;;;55.42;18.88;;;11.50;99.90;;;;;;5122248;27;38531;-79
2021/11/09 12:49:03;;;;;;;57.85;18.65;;;11.60;99.90;;;;;;5122118;27;39198;-79
2021/11/09 12:51:34;;;;;;;58.67;18.90;;;11.70;99.90;;;;;;5137171;27;47080;-79
2021/11/09 12:54:06;;;;;;;61.17;17.13;;;11.70;99.90;;;;;;5135369;27;38473;-79
2021/11/09 12:56:36;;;;;;;61.35;17.55;;;11.70;99.90;;;;;;5138348;27;47461;-79
2021/11/09 12:59:19;;;;;;;53.72;16.75;;;11.90;99.90;;;;;;5137068;27;36656;-79
2021/11/09 13:04:28;;;;;;;47.35;15.95;;;11.90;99.90;;;;;;5151132;27;38134;-80
2021/11/09 13:07:11;;;;;;;48.53;15.15;;;11.90;99.90;;;;;;5140749;27;37478;-79
2021/11/09 13:09:54;;;;;;;44.83;13.18;;;12.00;99.90;;;;;;5153799;27;48652;-79
2021/11/09 13:12:31;;;;;;;33.33;11.80;;;11.90;99.90;;;;;;5137067;27;38100;-78
2021/11/09 13:15:03;;;;;;;33.80;11.05;;;11.90;99.90;;;;;;5141552;27;37196;-79
2021/11/09 13:17:44;;;;;;;35.92;10.68;;;11.90;99.90;;;;;;5133469;27;47456;-78
2021/11/09 13:20:18;;;;;;;29.05;9.90;;;12.00;99.90;;;;;;5130969;27;36707;-79
2021/11/09 13:22:54;;;;;;;30.67;9.90;;;12.00;99.90;;;;;;5136793;27;38083;-79
2021/11/09 13:25:32;;;;;;;26.77;8.18;;;12.00;99.90;;;;;;5149348;27;38983;-79
2021/11/09 13:28:04;;;;;;;25.88;7.80;;;12.10;99.90;;;;;;5156737;27;38471;-80
2021/11/09 13:30:30;;;;;;;23.33;8.10;;;12.20;99.90;;;;;;5132621;27;47609;-80
2021/11/09 13:32:58;;;;;;;21.60;6.82;;;12.20;99.90;;;;;;5138096;27;38020;-79
2021/11/09 13:35:26;;;;;;;24.15;7.38;;;12.30;99.90;;;;;;5136972;27;37670;-79
2021/11/09 13:38:05;;;;;;;22.08;7.63;;;12.30;99.90;;;;;;5144218;27;38270;-78
2021/11/09 13:40:32;;;;;;;20.63;6.43;;;12.30;99.90;;;;;;5130167;27;47626;-79
2021/11/09 13:43:05;;;;;;;20.90;6.88;;;12.30;99.90;;;;;;5141940;27;39251;-78
2021/11/09 13:45:32;;;;;;;21.38;6.82;;;12.30;99.90;;;;;;5126056;27;47337;-77
2021/11/09 13:47:59;;;;;;;18.83;6.13;;;12.40;99.90;;;;;;5136237;27;39142;-79
2021/11/09 13:50:27;;;;;;;22.88;6.88;;;12.40;99.90;;;;;;5135454;27;36198;-80
2021/11/09 13:52:55;;;;;;;18.02;6.35;;;12.50;99.90;;;;;;5135428;27;40661;-80
2021/11/09 13:55:22;;;;;;;23.98;6.60;;;12.40;99.90;;;;;;5151300;27;37964;-78
2021/11/09 13:57:48;;;;;;;20.63;6.55;;;12.50;99.90;;;;;;5158306;27;37868;-79
2021/11/09 14:00:36;;;;;;;20.38;6.22;;;12.50;99.90;;;;;;5156933;27;37422;-78
2021/11/09 14:03:06;;;;;;;22.08;6.63;;;12.60;99.90;;;;;;5141162;27;37992;-80
2021/11/09 14:05:52;;;;;;;14.82;6.20;;;12.50;99.90;;;;;;5137774;27;39085;-78
2021/11/09 14:16:39;;;;;;;15.45;6.40;;;12.60;99.90;;;;;;5152397;27;49394;-78
2021/11/09 14:19:09;;;;;;;20.67;6.50;;;12.60;99.90;;;;;;5133045;27;37181;-77
2021/11/09 14:21:43;;;;;;;22.25;6.57;;;12.50;99.90;;;;;;5138324;27;35937;-77
2021/11/09 14:24:12;;;;;;;23.80;6.60;;;12.50;99.90;;;;;;5135628;27;38091;-77
2021/11/09 14:26:39;;;;;;;16.77;6.45;;;12.50;99.90;;;;;;5135698;27;37169;-77
2021/11/09 14:29:21;;;;;;;25.85;6.85;;;12.50;99.90;;;;;;5137335;27;38558;-77
2021/11/09 14:32:08;;;;;;;24.30;7.30;;;12.50;99.90;;;;;;5155832;27;37361;-77
2021/11/09 14:34:36;;;;;;;23.13;7.15;;;12.50;99.90;;;;;;5153276;27;48464;-77
2021/11/09 14:37:19;;;;;;;17.55;6.35;;;12.60;99.90;;;;;;5130427;27;38240;-78
2021/11/09 14:40:02;;;;;;;24.70;6.85;;;12.60;99.90;;;;;;5153880;27;38391;-77
2021/11/09 14:42:46;;;;;;;24.80;6.72;;;12.50;99.90;;;;;;5132849;27;47409;-78
2021/11/09 14:46:05;;;;;;;26.42;7.28;;;12.40;99.90;;;;;;5128435;27;37743;-77
2021/11/09 14:48:19;;;;;;;21.85;6.88;;;12.30;99.90;;;;;;5141509;27;38553;-77
2021/11/09 14:50:53;;;;;;;22.17;6.70;;;12.30;99.90;;;;;;5136921;27;38632;-78
2021/11/09 14:53:26;;;;;;;22.75;6.43;;;12.30;99.90;;;;;;5135659;27;34361;-78
2021/11/09 14:55:53;;;;;;;;;;;12.40;99.90;;;;;;5148392;27;39770;-79
2021/11/09 14:58:43;;;;;;;26.88;7.57;;;12.30;99.90;;;;;;5129812;27;37561;-78
2021/11/09 15:01:30;;;;;;;23.95;8.70;;;12.30;99.90;;;;;;5128660;27;36386;-78
2021/11/09 15:04:05;;;;;;;19.08;6.57;;;12.30;99.90;;;;;;5156170;27;37926;-79